createdAt,value
2017-12-12T00:00:02.784Z,76.10
2017-12-12T00:02:30.773Z,82.00
2017-12-12T00:04:59.749Z,82.30
2017-12-12T00:07:28.685Z,80.70
2017-12-12T00:09:56.942Z,80.90
2017-12-12T00:12:26.257Z,79.60
2017-12-12T00:14:54.637Z,79.80
2017-12-12T00:17:22.669Z,79.70
2017-12-12T00:19:51.686Z,80.50
2017-12-12T00:22:32.604Z,80.70
2017-12-12T00:25:00.821Z,79.20
2017-12-12T00:27:28.950Z,82.50
2017-12-12T00:29:56.993Z,80.90
2017-12-12T00:32:24.811Z,79.30
2017-12-12T00:34:53.643Z,79.80
2017-12-12T00:37:22.045Z,80.10
2017-12-12T00:39:50.297Z,78.50
2017-12-12T00:42:19.359Z,79.00
2017-12-12T00:44:47.991Z,79.60
2017-12-12T00:47:17.065Z,79.60
2017-12-12T00:49:44.899Z,79.20
2017-12-12T00:52:13.237Z,76.40
2017-12-12T00:54:42.102Z,77.60
2017-12-12T00:57:21.306Z,82.80
2017-12-12T00:59:49.581Z,82.90
2017-12-12T01:02:18.794Z,83.50
2017-12-12T01:04:46.879Z,83.50
2017-12-12T01:07:15.006Z,81.60
2017-12-12T01:09:42.806Z,73.80
2017-12-12T01:12:10.556Z,74.60
2017-12-12T01:14:38.589Z,75.20
2017-12-12T01:17:06.703Z,76.00
2017-12-12T01:19:35.308Z,78.00
2017-12-12T01:22:03.294Z,76.20
2017-12-12T01:24:31.565Z,75.50
2017-12-12T01:27:00.524Z,77.10
2017-12-12T01:29:30.398Z,75.90
2017-12-12T01:31:58.522Z,75.70
2017-12-12T01:34:26.772Z,72.70
2017-12-12T01:36:54.692Z,74.00
2017-12-12T01:39:22.799Z,73.20
2017-12-12T01:41:50.959Z,79.10
2017-12-12T01:44:18.996Z,74.70
2017-12-12T01:46:48.046Z,74.20
2017-12-12T01:49:16.009Z,75.40
2017-12-12T01:51:44.341Z,72.70
2017-12-12T01:54:12.250Z,78.20
2017-12-12T01:56:41.159Z,77.80
2017-12-12T01:59:09.656Z,78.00
2017-12-12T02:01:38.781Z,79.80
2017-12-12T02:04:06.891Z,79.70
2017-12-12T02:06:35.359Z,76.90
2017-12-12T02:09:03.244Z,74.20
2017-12-12T02:11:31.483Z,76.30
2017-12-12T02:13:59.639Z,76.70
2017-12-12T02:16:27.799Z,77.10
2017-12-12T02:18:56.067Z,73.60
2017-12-12T02:21:24.553Z,73.60
2017-12-12T02:23:53.997Z,73.10
2017-12-12T02:26:22.024Z,71.50
2017-12-12T02:28:51.103Z,69.60
2017-12-12T02:31:19.047Z,75.60
2017-12-12T02:33:48.078Z,71.70
2017-12-12T02:36:16.168Z,71.20
2017-12-12T02:38:45.123Z,74.20
2017-12-12T02:41:13.219Z,74.40
2017-12-12T02:43:41.283Z,74.20
2017-12-12T02:46:09.240Z,72.90
2017-12-12T02:48:37.634Z,72.40
2017-12-12T02:51:05.799Z,74.30
2017-12-12T02:53:33.966Z,73.90
2017-12-12T02:56:02.088Z,77.30
2017-12-12T02:58:31.995Z,76.00
2017-12-12T03:00:59.742Z,76.30
2017-12-12T03:03:27.801Z,72.80
2017-12-12T03:05:56.812Z,72.10
2017-12-12T03:08:24.853Z,72.70
2017-12-12T03:10:52.733Z,72.60
2017-12-12T03:13:20.585Z,75.00
2017-12-12T03:15:48.636Z,78.10
2017-12-12T03:18:17.751Z,72.20
2017-12-12T03:20:45.902Z,71.40
2017-12-12T03:23:15.832Z,71.40
2017-12-12T03:25:43.666Z,71.40
2017-12-12T03:28:11.587Z,70.90
2017-12-12T03:30:39.802Z,73.50
2017-12-12T03:33:08.522Z,73.30
2017-12-12T03:35:38.718Z,73.50
2017-12-12T03:38:08.293Z,71.80
2017-12-12T03:40:36.337Z,72.30
2017-12-12T03:43:05.538Z,72.70
2017-12-12T03:45:33.517Z,71.20
2017-12-12T03:48:02.656Z,69.00
2017-12-12T03:50:31.060Z,72.50
2017-12-12T03:52:59.051Z,73.20
2017-12-12T03:55:26.605Z,73.90
2017-12-12T03:57:54.269Z,75.80
2017-12-12T04:00:21.793Z,73.60
2017-12-12T04:02:50.079Z,72.50
2017-12-12T04:05:18.647Z,72.00
2017-12-12T04:07:46.176Z,74.90
2017-12-12T04:10:13.730Z,78.40
2017-12-12T04:12:41.253Z,74.40
2017-12-12T04:15:08.803Z,70.20
2017-12-12T04:17:36.331Z,75.00
2017-12-12T04:20:03.851Z,75.40
2017-12-12T04:22:31.394Z,74.00
2017-12-12T04:24:58.931Z,77.00
2017-12-12T04:27:28.423Z,76.90
2017-12-12T04:29:55.951Z,77.30
2017-12-12T04:32:23.498Z,78.00
2017-12-12T04:34:51.012Z,74.40
2017-12-12T04:37:19.551Z,77.00
2017-12-12T04:39:47.112Z,70.30
2017-12-12T04:42:15.613Z,75.30
2017-12-12T04:44:43.162Z,79.70
2017-12-12T04:47:10.696Z,71.80
2017-12-12T04:49:38.258Z,73.60
2017-12-12T04:52:05.781Z,78.70
2017-12-12T04:54:34.273Z,74.80
2017-12-12T04:57:01.830Z,75.00
2017-12-12T04:59:29.363Z,77.40
2017-12-12T05:01:56.924Z,79.00
2017-12-12T05:04:24.448Z,74.50
2017-12-12T05:06:52.768Z,77.10
2017-12-12T05:09:20.315Z,77.20
2017-12-12T05:11:47.844Z,79.10
2017-12-12T05:14:15.398Z,77.40
2017-12-12T05:16:42.915Z,77.50
2017-12-12T05:19:10.456Z,81.20
2017-12-12T05:21:39.703Z,80.20
2017-12-12T05:24:07.220Z,80.30
2017-12-12T05:26:34.769Z,79.80
2017-12-12T05:29:02.456Z,72.70
2017-12-12T05:31:30.003Z,77.20
2017-12-12T05:33:57.531Z,76.40
2017-12-12T05:36:25.088Z,76.10
2017-12-12T05:38:53.378Z,75.40
2017-12-12T05:41:21.679Z,74.00
2017-12-12T05:43:49.228Z,73.90
2017-12-12T05:46:16.750Z,74.70
2017-12-12T05:48:44.312Z,75.20
2017-12-12T05:51:12.604Z,75.20
2017-12-12T05:53:41.843Z,74.70
2017-12-12T05:56:09.400Z,74.70
2017-12-12T05:58:36.927Z,74.20
2017-12-12T06:01:05.439Z,76.10
2017-12-12T06:03:32.955Z,75.90
2017-12-12T06:06:00.507Z,78.90
2017-12-12T06:08:28.080Z,79.60
2017-12-12T06:10:58.140Z,80.40
2017-12-12T06:13:27.706Z,75.90
2017-12-12T06:15:55.243Z,77.70
2017-12-12T06:18:22.799Z,76.50
2017-12-12T06:20:50.324Z,75.40
2017-12-12T06:23:17.854Z,78.30
2017-12-12T06:25:45.404Z,80.50
2017-12-12T06:28:12.943Z,77.80
2017-12-12T06:30:40.507Z,75.20
2017-12-12T06:33:09.764Z,79.40
2017-12-12T06:35:37.335Z,79.10
2017-12-12T06:38:06.157Z,77.30
2017-12-12T06:40:34.069Z,77.40
2017-12-12T06:43:01.642Z,76.40
2017-12-12T06:45:29.173Z,78.00
2017-12-12T06:47:56.716Z,75.60
2017-12-12T06:50:24.240Z,74.10
2017-12-12T06:52:51.760Z,74.40
2017-12-12T06:55:19.312Z,76.50
2017-12-12T06:57:47.800Z,72.90
2017-12-12T07:00:15.360Z,75.30
2017-12-12T07:02:42.879Z,74.40
2017-12-12T07:05:11.363Z,77.20
2017-12-12T07:07:41.637Z,77.90
2017-12-12T07:10:10.487Z,78.20
2017-12-12T07:12:39.067Z,79.40
2017-12-12T07:15:06.627Z,77.70
2017-12-12T07:17:34.148Z,72.90
2017-12-12T07:20:02.485Z,74.80
2017-12-12T07:22:30.011Z,74.90
2017-12-12T07:24:57.562Z,75.70
2017-12-12T07:27:25.079Z,75.50
2017-12-12T07:29:52.626Z,77.10
2017-12-12T07:32:20.158Z,76.30
2017-12-12T07:34:47.691Z,77.00
2017-12-12T07:37:15.235Z,73.90
2017-12-12T07:39:42.803Z,75.90
2017-12-12T07:42:13.047Z,73.90
2017-12-12T07:44:41.339Z,71.80
2017-12-12T07:47:08.858Z,71.50
2017-12-12T07:49:39.103Z,72.30
2017-12-12T07:52:06.633Z,71.30
2017-12-12T07:54:34.923Z,74.30
2017-12-12T07:57:03.236Z,73.70
2017-12-12T07:59:30.760Z,73.90
2017-12-12T08:01:58.310Z,74.50
2017-12-12T08:04:26.634Z,73.20
2017-12-12T08:06:54.155Z,73.30
2017-12-12T08:09:22.466Z,79.60
2017-12-12T08:11:50.001Z,79.50
2017-12-12T08:14:17.526Z,77.30
2017-12-12T08:16:45.840Z,76.50
2017-12-12T08:19:13.409Z,76.60
2017-12-12T08:21:40.955Z,79.30
2017-12-12T08:24:10.504Z,80.20
2017-12-12T08:26:38.966Z,78.40
2017-12-12T08:29:06.508Z,77.60
2017-12-12T08:31:34.022Z,77.50
2017-12-12T08:34:01.543Z,78.80
2017-12-12T08:36:29.086Z,80.10
2017-12-12T08:38:56.615Z,78.70
2017-12-12T08:41:24.938Z,79.60
2017-12-12T08:43:52.468Z,79.60
2017-12-12T08:46:20.936Z,81.50
2017-12-12T08:48:49.256Z,79.20
2017-12-12T08:51:16.800Z,79.20
2017-12-12T08:53:44.351Z,77.90
2017-12-12T08:56:11.879Z,79.70
2017-12-12T08:58:40.180Z,76.50
2017-12-12T09:01:07.740Z,76.60
2017-12-12T09:03:35.321Z,73.30
2017-12-12T09:06:02.847Z,75.40
2017-12-12T09:08:30.396Z,78.10
2017-12-12T09:10:57.924Z,79.70
2017-12-12T09:13:25.451Z,78.20
2017-12-12T09:15:53.007Z,76.40
2017-12-12T09:18:20.536Z,76.20
2017-12-12T09:20:48.091Z,77.30
2017-12-12T09:23:16.379Z,72.50
2017-12-12T09:25:43.911Z,72.50
2017-12-12T09:28:11.468Z,70.10
2017-12-12T09:30:38.999Z,73.30
2017-12-12T09:33:06.557Z,66.80
2017-12-12T09:35:35.032Z,73.50
2017-12-12T09:38:02.555Z,69.80
2017-12-12T09:40:30.111Z,71.70
2017-12-12T09:42:58.393Z,72.90
2017-12-12T09:45:25.923Z,73.00
2017-12-12T09:47:54.237Z,76.70
2017-12-12T09:50:21.758Z,76.90
2017-12-12T09:52:49.308Z,71.50
2017-12-12T09:55:17.820Z,70.20
2017-12-12T09:57:46.099Z,67.40
2017-12-12T10:00:13.651Z,67.10
2017-12-12T10:02:41.166Z,68.60
2017-12-12T10:05:08.693Z,68.90
2017-12-12T10:07:36.246Z,74.00
2017-12-12T10:10:03.768Z,66.00
2017-12-12T10:12:31.324Z,67.10
2017-12-12T10:14:58.907Z,70.80
2017-12-12T10:17:26.408Z,68.30
2017-12-12T10:19:53.956Z,66.10
2017-12-12T10:22:21.480Z,71.40
2017-12-12T10:24:49.760Z,70.80
2017-12-12T10:27:17.302Z,71.20
2017-12-12T10:29:44.818Z,69.60
2017-12-12T10:32:12.335Z,69.90
2017-12-12T10:34:40.062Z,72.60
2017-12-12T10:37:07.589Z,66.30
2017-12-12T10:39:35.163Z,68.90
2017-12-12T10:42:02.686Z,71.80
2017-12-12T10:44:30.217Z,70.10
2017-12-12T10:46:57.763Z,69.10
2017-12-12T10:49:25.296Z,68.70
2017-12-12T10:51:52.811Z,67.30
2017-12-12T10:54:20.364Z,70.00
2017-12-12T10:56:47.896Z,67.70
2017-12-12T10:59:15.465Z,72.20
2017-12-12T11:01:45.011Z,69.40
2017-12-12T11:04:12.527Z,71.50
2017-12-12T11:06:40.054Z,71.10
2017-12-12T11:09:09.551Z,68.10
2017-12-12T11:11:37.068Z,72.50
2017-12-12T11:14:04.598Z,65.90
2017-12-12T11:16:32.144Z,67.20
2017-12-12T11:18:59.675Z,65.10
2017-12-12T11:21:27.243Z,64.10
2017-12-12T11:23:54.765Z,62.00
2017-12-12T11:26:22.295Z,68.60
2017-12-12T11:28:49.845Z,69.10
2017-12-12T11:31:17.404Z,65.70
2017-12-12T11:33:44.964Z,61.40
2017-12-12T11:36:12.487Z,68.80
2017-12-12T11:38:40.013Z,67.80
2017-12-12T11:41:07.579Z,68.40
2017-12-12T11:43:35.108Z,63.50
2017-12-12T11:46:03.458Z,62.40
2017-12-12T11:48:30.984Z,62.30
2017-12-12T11:50:58.509Z,64.10
2017-12-12T11:53:26.083Z,63.50
2017-12-12T11:55:53.610Z,65.40
2017-12-12T11:58:21.136Z,64.40
2017-12-12T12:00:48.711Z,65.80
2017-12-12T12:03:16.235Z,61.60
2017-12-12T12:05:43.760Z,63.50
2017-12-12T12:08:12.083Z,64.30
2017-12-12T12:10:39.614Z,63.60
2017-12-12T12:13:07.134Z,66.50
2017-12-12T12:15:34.685Z,65.20
2017-12-12T12:18:02.230Z,61.50
2017-12-12T12:20:29.775Z,59.60
2017-12-12T12:22:59.263Z,60.40
2017-12-12T12:25:26.796Z,64.20
2017-12-12T12:27:55.081Z,61.20
2017-12-12T12:30:23.396Z,63.40
2017-12-12T12:32:50.952Z,63.50
2017-12-12T12:35:18.485Z,66.50
2017-12-12T12:37:48.000Z,63.40
2017-12-12T12:40:15.530Z,64.80
2017-12-12T12:42:43.079Z,63.60
2017-12-12T12:45:12.599Z,63.30
2017-12-12T12:47:40.887Z,63.90
2017-12-12T12:50:10.386Z,63.60
2017-12-12T12:52:37.903Z,64.80
2017-12-12T12:55:06.347Z,64.20
2017-12-12T12:57:33.893Z,62.50
2017-12-12T13:00:01.422Z,64.00
2017-12-12T13:02:28.962Z,59.00
2017-12-12T13:04:59.258Z,67.30
2017-12-12T13:07:26.774Z,67.30
2017-12-12T13:09:55.070Z,59.50
2017-12-12T13:12:22.622Z,60.40
2017-12-12T13:14:50.165Z,61.70
2017-12-12T13:17:17.687Z,59.60
2017-12-12T13:19:47.201Z,64.60
2017-12-12T13:22:15.675Z,63.90
2017-12-12T13:24:43.243Z,61.70
2017-12-12T13:27:10.760Z,61.10
2017-12-12T13:29:38.283Z,61.80
2017-12-12T13:32:06.608Z,57.90
2017-12-12T13:34:34.138Z,58.10
2017-12-12T13:37:01.707Z,59.00
2017-12-12T13:39:29.239Z,60.00
2017-12-12T13:41:57.533Z,62.00
2017-12-12T13:44:25.104Z,61.80
2017-12-12T13:46:52.627Z,63.40
2017-12-12T13:49:20.174Z,57.10
2017-12-12T13:51:49.728Z,60.00
2017-12-12T13:54:18.244Z,58.00
2017-12-12T13:56:46.569Z,59.50
2017-12-12T13:59:14.120Z,59.30
2017-12-12T14:01:42.402Z,62.80
2017-12-12T14:04:09.935Z,63.20
2017-12-12T14:06:38.262Z,59.90
2017-12-12T14:09:05.797Z,59.20
2017-12-12T14:11:33.362Z,65.40
2017-12-12T14:14:00.906Z,63.80
2017-12-12T14:16:28.436Z,63.80
2017-12-12T14:18:57.925Z,57.50
2017-12-12T14:21:25.455Z,60.80
2017-12-12T14:23:53.992Z,60.00
2017-12-12T14:26:22.282Z,62.10
2017-12-12T14:28:49.799Z,61.90
2017-12-12T14:31:17.371Z,58.30
2017-12-12T14:33:44.900Z,58.30
2017-12-12T14:36:12.447Z,60.00
2017-12-12T14:38:39.971Z,65.50
2017-12-12T14:41:07.487Z,61.10
2017-12-12T14:43:35.032Z,62.20
2017-12-12T14:46:02.563Z,58.20
2017-12-12T14:48:30.083Z,63.20
2017-12-12T14:50:58.415Z,63.60
2017-12-12T14:53:25.942Z,63.60
2017-12-12T14:55:53.472Z,63.40
2017-12-12T14:58:21.064Z,60.70
2017-12-12T15:00:48.590Z,61.90
2017-12-12T15:03:16.131Z,62.10
2017-12-12T15:05:44.644Z,59.90
2017-12-12T15:08:12.961Z,57.80
2017-12-12T15:10:40.492Z,57.60
2017-12-12T15:13:08.052Z,58.60
2017-12-12T15:15:36.346Z,63.10
2017-12-12T15:18:03.905Z,63.20
2017-12-12T15:20:31.432Z,62.00
2017-12-12T15:22:59.736Z,56.40
2017-12-12T15:25:27.299Z,55.80
2017-12-12T15:27:54.834Z,60.70
2017-12-12T15:30:22.383Z,61.00
2017-12-12T15:32:49.909Z,59.00
2017-12-12T15:35:17.446Z,60.90
2017-12-12T15:37:45.006Z,59.90
2017-12-12T15:40:12.553Z,58.50
2017-12-12T15:42:40.116Z,60.20
2017-12-12T15:45:07.636Z,61.10
2017-12-12T15:47:35.154Z,63.70
2017-12-12T15:50:02.733Z,61.00
2017-12-12T15:52:30.258Z,64.60
2017-12-12T15:54:57.795Z,64.20
2017-12-12T15:57:26.328Z,61.30
2017-12-12T15:59:53.842Z,62.60
2017-12-12T16:02:21.388Z,61.90
2017-12-12T16:04:50.643Z,62.60
2017-12-12T16:07:18.195Z,62.70
2017-12-12T16:09:46.674Z,65.90
2017-12-12T16:12:14.202Z,61.20
2017-12-12T16:14:41.773Z,64.30
2017-12-12T16:17:10.248Z,62.90
2017-12-12T16:19:37.799Z,66.00
2017-12-12T16:22:05.326Z,63.70
2017-12-12T16:24:32.901Z,61.60
2017-12-12T16:27:00.507Z,63.60
2017-12-12T16:29:28.058Z,63.80
2017-12-12T16:31:55.608Z,62.20
2017-12-12T16:34:23.167Z,63.80
2017-12-12T16:36:50.715Z,63.50
2017-12-12T16:39:18.247Z,64.60
2017-12-12T16:41:45.831Z,66.50
2017-12-12T16:44:13.363Z,64.40
2017-12-12T16:46:40.887Z,65.40
2017-12-12T16:49:08.442Z,62.80
2017-12-12T16:51:35.970Z,63.50
2017-12-12T16:54:03.489Z,63.20
2017-12-12T16:56:31.036Z,62.80
2017-12-12T16:59:00.306Z,61.80
2017-12-12T17:01:27.834Z,61.90
2017-12-12T17:03:57.355Z,60.30
2017-12-12T17:06:24.888Z,64.00
2017-12-12T17:08:52.443Z,58.90
2017-12-12T17:11:19.999Z,60.00
2017-12-12T17:13:48.292Z,59.50
2017-12-12T17:16:15.871Z,58.90
2017-12-12T17:18:44.356Z,61.30
2017-12-12T17:21:12.834Z,59.90
2017-12-12T17:23:40.399Z,58.10
2017-12-12T17:26:07.918Z,59.10
2017-12-12T17:28:37.154Z,60.30
2017-12-12T17:31:04.726Z,60.50
2017-12-12T17:33:32.327Z,57.80
2017-12-12T17:35:59.891Z,59.50
2017-12-12T17:38:28.214Z,59.60
2017-12-12T17:40:55.749Z,60.20
2017-12-12T17:43:23.278Z,59.60
2017-12-12T17:45:50.827Z,58.70
2017-12-12T17:48:18.362Z,59.50
2017-12-12T17:50:45.891Z,58.20
2017-12-12T17:53:25.265Z,57.30
2017-12-12T17:55:52.795Z,57.60
2017-12-12T17:58:20.333Z,56.70
2017-12-12T18:00:47.894Z,58.50
2017-12-12T18:03:16.388Z,57.20
2017-12-12T18:05:43.935Z,57.60
2017-12-12T18:08:11.447Z,55.40
2017-12-12T18:10:39.004Z,56.60
2017-12-12T18:13:07.406Z,56.40
2017-12-12T18:15:36.653Z,56.80
2017-12-12T18:18:04.210Z,56.80
2017-12-12T18:20:31.744Z,56.20
2017-12-12T18:22:59.304Z,56.10
2017-12-12T18:25:28.500Z,55.80
2017-12-12T18:27:56.132Z,55.70
2017-12-12T18:30:23.704Z,55.80
2017-12-12T18:32:52.245Z,56.60
2017-12-12T18:35:20.715Z,56.50
2017-12-12T18:37:48.254Z,56.70
2017-12-12T18:40:15.780Z,56.70
2017-12-12T18:42:43.343Z,56.70
2017-12-12T18:45:11.667Z,57.30
2017-12-12T18:47:40.208Z,57.30
2017-12-12T18:50:08.625Z,56.80
2017-12-12T18:52:36.211Z,56.10
2017-12-12T18:55:03.767Z,56.20
2017-12-12T18:57:31.350Z,56.10
2017-12-12T18:59:59.339Z,55.40
2017-12-12T19:02:27.245Z,55.90
2017-12-12T19:04:54.770Z,56.10
2017-12-12T19:07:22.290Z,56.20
2017-12-12T19:09:49.845Z,56.70
2017-12-12T19:12:17.364Z,57.00
2017-12-12T19:14:45.467Z,57.10
2017-12-12T19:17:13.158Z,58.50
2017-12-12T19:19:40.850Z,59.60
2017-12-12T19:22:08.379Z,59.40
2017-12-12T19:24:36.715Z,60.80
2017-12-12T19:27:04.248Z,60.80
2017-12-12T19:29:31.780Z,61.30
2017-12-12T19:31:59.363Z,62.30
2017-12-12T19:34:26.885Z,63.60
2017-12-12T19:36:55.224Z,63.60
2017-12-12T19:39:24.060Z,63.60
2017-12-12T19:41:51.730Z,63.40
2017-12-12T19:44:19.301Z,63.70
2017-12-12T19:46:46.839Z,65.90
2017-12-12T19:49:15.159Z,67.70
2017-12-12T19:51:42.937Z,67.60
2017-12-12T19:54:10.540Z,67.70
2017-12-12T19:56:38.135Z,68.30
2017-12-12T19:59:05.660Z,67.20
2017-12-12T20:01:34.138Z,66.30
2017-12-12T20:04:01.696Z,66.70
2017-12-12T20:06:29.991Z,68.00
2017-12-12T20:08:58.494Z,68.00
2017-12-12T20:11:26.058Z,66.00
2017-12-12T20:13:54.566Z,65.60
2017-12-12T20:16:23.277Z,65.20
2017-12-12T20:18:52.560Z,66.60
2017-12-12T20:21:20.502Z,66.60
2017-12-12T20:23:48.410Z,66.00
2017-12-12T20:26:16.273Z,65.40
2017-12-12T20:28:45.115Z,66.10
2017-12-12T20:31:13.739Z,66.10
2017-12-12T20:33:41.299Z,64.90
2017-12-12T20:36:08.864Z,66.20
2017-12-12T20:38:36.391Z,66.90
2017-12-12T20:41:03.947Z,67.10
2017-12-12T20:46:11.167Z,67.40
2017-12-12T20:51:20.062Z,67.40
2017-12-12T20:53:47.600Z,67.60
2017-12-12T20:56:15.903Z,68.40
2017-12-12T20:58:44.084Z,68.30
2017-12-12T21:01:11.612Z,68.40
2017-12-12T21:03:39.158Z,68.80
2017-12-12T21:06:07.776Z,68.90
2017-12-12T21:08:35.455Z,68.90
2017-12-12T21:11:02.971Z,69.60
2017-12-12T21:13:31.283Z,68.90
2017-12-12T21:15:59.804Z,68.90
2017-12-12T21:18:28.100Z,67.90
2017-12-12T21:20:56.438Z,68.10
2017-12-12T21:23:23.967Z,68.00
2017-12-12T21:25:57.279Z,68.50
2017-12-12T21:28:24.843Z,68.00
2017-12-12T21:30:52.523Z,68.00
2017-12-12T21:33:20.062Z,68.90
2017-12-12T21:35:47.639Z,69.10
2017-12-12T21:38:15.163Z,69.90
2017-12-12T21:40:42.708Z,69.30
2017-12-12T21:43:10.261Z,70.40
2017-12-12T21:45:37.789Z,70.10
2017-12-12T21:48:06.104Z,69.10
2017-12-12T21:50:33.671Z,69.10
2017-12-12T21:53:01.213Z,70.10
2017-12-12T21:55:28.862Z,70.60
2017-12-12T21:57:58.144Z,70.50
2017-12-12T22:00:26.437Z,70.90
2017-12-12T22:02:54.128Z,70.20
2017-12-12T22:05:21.686Z,70.70
2017-12-12T22:07:49.223Z,71.30
2017-12-12T22:10:17.733Z,70.80
2017-12-12T22:12:47.223Z,71.70
2017-12-12T22:15:14.779Z,71.60
2017-12-12T22:17:42.336Z,71.40
2017-12-12T22:20:09.867Z,71.70
2017-12-12T22:22:38.164Z,71.70
2017-12-12T22:25:07.412Z,71.40
2017-12-12T22:27:34.937Z,71.90
2017-12-12T22:30:02.495Z,71.60
2017-12-12T22:32:30.088Z,71.40
2017-12-12T22:34:57.627Z,70.90
2017-12-12T22:37:25.177Z,70.80
2017-12-12T22:39:54.671Z,70.90
2017-12-12T22:42:22.239Z,70.90
2017-12-12T22:44:49.767Z,70.40
2017-12-12T22:47:18.063Z,70.30
2017-12-12T22:49:45.620Z,70.30
2017-12-12T22:52:13.161Z,70.80
2017-12-12T22:54:42.475Z,71.50
2017-12-12T22:57:10.873Z,71.20
2017-12-12T22:59:38.443Z,71.20
2017-12-12T23:02:05.966Z,71.70
2017-12-12T23:04:33.541Z,71.50
2017-12-12T23:07:01.320Z,71.50
2017-12-12T23:09:28.870Z,71.00
2017-12-12T23:11:56.410Z,71.50
2017-12-12T23:14:23.978Z,71.60
2017-12-12T23:16:51.523Z,71.70
2017-12-12T23:19:19.093Z,72.20
2017-12-12T23:21:46.876Z,71.60
2017-12-12T23:24:14.426Z,71.00
2017-12-12T23:26:42.178Z,71.70
2017-12-12T23:29:09.724Z,72.40
2017-12-12T23:31:38.052Z,71.70
2017-12-12T23:34:05.631Z,71.80
2017-12-12T23:36:33.206Z,72.30
2017-12-12T23:39:01.035Z,72.00
2017-12-12T23:41:31.451Z,72.60
2017-12-12T23:43:59.028Z,72.50
2017-12-12T23:46:26.673Z,73.20
2017-12-12T23:48:54.240Z,72.80
2017-12-12T23:51:21.783Z,72.10
2017-12-12T23:53:51.275Z,72.50
2017-12-12T23:56:18.816Z,73.30
2017-12-12T23:58:47.335Z,73.40
